createdAt,value
2018-03-03T00:01:26.093Z,62.70
2018-03-03T00:13:36.276Z,63.10
2018-03-03T00:16:05.810Z,64.30
2018-03-03T00:18:33.922Z,65.40
2018-03-03T00:21:04.975Z,65.70
2018-03-03T00:23:34.226Z,65.60
2018-03-03T00:26:04.031Z,65.40
2018-03-03T00:28:33.233Z,65.70
2018-03-03T00:31:01.409Z,65.70
2018-03-03T00:33:33.025Z,65.60
2018-03-03T00:36:02.307Z,65.70
2018-03-03T00:38:31.643Z,65.20
2018-03-03T00:41:02.515Z,65.20
2018-03-03T00:43:32.266Z,64.70
2018-03-03T00:46:02.323Z,64.50
2018-03-03T00:48:31.146Z,64.60
2018-03-03T00:50:59.543Z,65.40
2018-03-03T00:53:28.908Z,65.30
2018-03-03T00:55:57.414Z,65.60
2018-03-03T00:58:28.441Z,67.70
2018-03-03T01:00:56.212Z,67.70
2018-03-03T01:03:27.473Z,67.90
2018-03-03T01:05:57.397Z,67.90
2018-03-03T01:08:38.930Z,67.80
2018-03-03T01:11:07.934Z,67.40
2018-03-03T01:13:38.506Z,67.00
2018-03-03T01:16:08.281Z,66.20
2018-03-03T01:18:38.362Z,65.50
2018-03-03T01:21:07.204Z,65.00
2018-03-03T01:23:36.622Z,64.50
2018-03-03T01:26:05.912Z,64.40
2018-03-03T01:28:34.739Z,64.30
2018-03-03T01:31:08.603Z,61.40
2018-03-03T01:33:37.727Z,61.20
2018-03-03T01:36:08.643Z,60.90
2018-03-03T01:38:38.583Z,60.70
2018-03-03T01:41:08.961Z,60.00
2018-03-03T01:43:38.958Z,59.70
2018-03-03T01:46:09.209Z,57.90
2018-03-03T01:48:39.194Z,58.10
2018-03-03T01:51:09.742Z,58.20
2018-03-03T01:53:38.854Z,57.40
2018-03-03T01:56:07.381Z,56.80
2018-03-03T01:58:42.998Z,56.50
2018-03-03T02:01:12.661Z,56.50
2018-03-03T02:03:41.930Z,55.60
2018-03-03T02:06:13.224Z,55.70
2018-03-03T02:08:44.016Z,55.00
2018-03-03T02:11:14.958Z,55.70
2018-03-03T02:13:44.108Z,55.20
2018-03-03T02:16:13.822Z,54.40
2018-03-03T02:18:43.749Z,54.00
2018-03-03T02:21:13.427Z,53.80
2018-03-03T02:23:42.438Z,54.10
2018-03-03T02:26:12.551Z,54.00
2018-03-03T02:28:42.014Z,53.60
2018-03-03T02:31:12.134Z,52.90
2018-03-03T02:33:41.072Z,53.10
2018-03-03T02:36:10.783Z,52.90
2018-03-03T02:38:39.365Z,52.30
2018-03-03T02:41:08.399Z,53.00
2018-03-03T02:43:36.442Z,53.20
2018-03-03T02:46:05.958Z,53.70
2018-03-03T02:48:34.489Z,53.50
2018-03-03T02:51:05.622Z,53.20
2018-03-03T02:53:35.872Z,53.00
2018-03-03T02:56:04.783Z,53.20
2018-03-03T02:58:33.247Z,53.20
2018-03-03T03:01:01.139Z,52.90
2018-03-03T03:03:31.153Z,53.00
2018-03-03T03:06:01.883Z,53.30
2018-03-03T03:08:30.526Z,53.40
2018-03-03T03:10:58.515Z,53.60
2018-03-03T03:13:29.089Z,53.40
2018-03-03T03:15:58.218Z,53.30
2018-03-03T03:18:28.375Z,53.20
2018-03-03T03:20:58.490Z,53.20
2018-03-03T03:23:27.123Z,53.30
2018-03-03T03:25:55.490Z,53.60
2018-03-03T03:28:25.419Z,53.80
2018-03-03T03:30:58.287Z,54.30
2018-03-03T03:33:27.355Z,53.40
2018-03-03T03:35:57.866Z,53.60
2018-03-03T03:38:28.371Z,53.60
2018-03-03T03:40:58.235Z,53.00
2018-03-03T03:43:29.243Z,53.30
2018-03-03T03:45:59.475Z,53.10
2018-03-03T03:48:28.585Z,52.90
2018-03-03T03:50:58.231Z,52.80
2018-03-03T03:53:27.392Z,53.10
2018-03-03T03:55:56.203Z,53.40
2018-03-03T03:58:27.401Z,54.10
2018-03-03T04:00:55.908Z,53.40
2018-03-03T04:03:24.329Z,53.40
2018-03-03T04:05:52.767Z,53.70
2018-03-03T04:08:21.768Z,53.60
2018-03-03T04:10:52.393Z,53.10
2018-03-03T04:13:20.559Z,53.10
2018-03-03T04:15:48.813Z,53.40
2018-03-03T04:18:17.329Z,53.40
2018-03-03T04:20:46.934Z,53.40
2018-03-03T04:23:16.046Z,53.70
2018-03-03T04:25:44.412Z,53.60
2018-03-03T04:28:13.406Z,53.40
2018-03-03T04:30:42.338Z,53.10
2018-03-03T04:33:11.610Z,52.60
2018-03-03T04:35:40.779Z,52.80
2018-03-03T04:38:11.520Z,52.40
2018-03-03T04:40:40.114Z,52.50
2018-03-03T04:43:09.511Z,52.20
2018-03-03T04:45:39.714Z,51.20
2018-03-03T04:48:08.565Z,51.00
2018-03-03T04:50:38.255Z,51.30
2018-03-03T04:53:08.153Z,51.90
2018-03-03T04:55:37.089Z,52.30
2018-03-03T04:58:07.088Z,51.60
2018-03-03T05:00:42.668Z,52.00
2018-03-03T05:03:17.330Z,51.80
2018-03-03T05:05:50.554Z,51.10
2018-03-03T05:11:19.337Z,51.40
2018-03-03T05:13:58.688Z,51.30
2018-03-03T05:16:31.905Z,51.40
2018-03-03T05:19:15.984Z,51.40
2018-03-03T05:21:49.115Z,51.40
2018-03-03T05:24:22.724Z,51.20
2018-03-03T05:26:57.845Z,51.30
2018-03-03T05:29:32.960Z,51.50
2018-03-03T05:32:08.587Z,51.30
2018-03-03T05:47:28.007Z,52.30
2018-03-03T05:53:17.233Z,52.00
2018-03-03T05:56:23.797Z,52.70
2018-03-03T05:58:58.411Z,52.40
2018-03-03T06:01:32.418Z,52.30
2018-03-03T06:10:20.295Z,51.20
2018-03-03T06:12:49.286Z,51.30
2018-03-03T06:15:19.480Z,50.80
2018-03-03T06:17:50.324Z,50.60
2018-03-03T06:20:20.841Z,50.40
2018-03-03T06:22:51.435Z,50.60
2018-03-03T06:25:21.922Z,50.60
2018-03-03T06:27:50.544Z,50.60
2018-03-03T06:30:20.244Z,50.50
2018-03-03T06:32:49.090Z,50.10
2018-03-03T06:35:18.964Z,49.60
2018-03-03T06:37:47.785Z,49.60
2018-03-03T06:40:16.736Z,49.30
2018-03-03T06:42:44.960Z,50.10
2018-03-03T06:45:12.992Z,49.80
2018-03-03T06:47:44.100Z,49.70
2018-03-03T06:50:14.385Z,49.60
2018-03-03T06:52:42.413Z,50.00
2018-03-03T06:55:12.594Z,50.60
2018-03-03T06:57:42.358Z,50.70
2018-03-03T07:00:12.701Z,49.60
2018-03-03T07:02:42.961Z,49.60
2018-03-03T07:05:12.095Z,49.30
2018-03-03T07:17:25.599Z,49.00
2018-03-03T07:19:55.250Z,48.60
2018-03-03T07:22:31.064Z,48.80
2018-03-03T07:24:59.949Z,48.30
2018-03-03T07:27:29.128Z,47.70
2018-03-03T07:29:58.125Z,47.50
2018-03-03T07:32:26.930Z,47.00
2018-03-03T07:34:55.089Z,46.60
2018-03-03T07:37:23.707Z,46.30
2018-03-03T07:39:52.486Z,45.40
2018-03-03T07:42:21.581Z,45.90
2018-03-03T07:44:50.722Z,45.80
2018-03-03T07:47:19.203Z,45.60
2018-03-03T07:49:48.437Z,45.30
2018-03-03T07:52:19.728Z,45.20
2018-03-03T07:54:48.397Z,44.90
2018-03-03T07:57:18.031Z,44.90
2018-03-03T07:59:47.611Z,44.90
2018-03-03T08:02:18.820Z,44.70
2018-03-03T08:04:46.581Z,45.20
2018-03-03T08:07:16.383Z,46.20
2018-03-03T08:09:46.097Z,46.30
2018-03-03T08:12:16.421Z,46.00
2018-03-03T08:14:46.554Z,46.30
2018-03-03T08:17:17.263Z,46.10
2018-03-03T08:19:46.700Z,46.10
2018-03-03T08:22:16.258Z,46.30
2018-03-03T08:24:45.294Z,45.70
2018-03-03T08:27:16.934Z,44.90
2018-03-03T08:29:45.432Z,44.70
2018-03-03T08:32:13.805Z,43.60
2018-03-03T08:34:43.975Z,44.60
2018-03-03T08:37:12.946Z,44.70
2018-03-03T08:39:41.593Z,44.80
2018-03-03T08:42:11.063Z,44.70
2018-03-03T08:44:39.935Z,45.50
2018-03-03T08:47:09.976Z,45.70
2018-03-03T08:49:39.665Z,45.80
2018-03-03T08:52:08.627Z,45.10
2018-03-03T08:54:37.510Z,44.50
2018-03-03T08:57:06.453Z,44.20
2018-03-03T08:59:34.785Z,44.30
2018-03-03T09:02:04.114Z,44.10
2018-03-03T09:04:35.819Z,41.90
2018-03-03T09:07:04.724Z,41.90
2018-03-03T09:09:33.589Z,42.10
2018-03-03T09:12:03.198Z,42.90
2018-03-03T09:14:32.641Z,42.10
2018-03-03T09:17:04.279Z,42.40
2018-03-03T09:19:35.132Z,42.40
2018-03-03T09:24:42.717Z,39.90
2018-03-03T09:27:10.974Z,39.90
2018-03-03T09:29:41.049Z,40.70
2018-03-03T09:32:08.787Z,41.10
2018-03-03T09:34:38.114Z,40.50
2018-03-03T09:37:07.939Z,40.80
2018-03-03T09:39:37.977Z,41.60
2018-03-03T09:42:09.674Z,42.30
2018-03-03T09:44:39.066Z,42.30
2018-03-03T09:47:08.052Z,42.30
2018-03-03T09:49:39.397Z,41.90
2018-03-03T09:52:07.865Z,41.30
2018-03-03T09:54:36.897Z,40.30
2018-03-03T09:57:05.231Z,40.40
2018-03-03T09:59:34.442Z,41.30
2018-03-03T10:02:06.290Z,41.20
2018-03-03T10:04:30.390Z,41.10
2018-03-03T10:06:59.651Z,40.90
2018-03-03T10:22:25.565Z,40.50
2018-03-03T10:24:55.380Z,41.30
2018-03-03T10:27:25.070Z,41.20
2018-03-03T10:29:54.565Z,41.10
2018-03-03T10:32:25.952Z,40.90
2018-03-03T10:34:56.617Z,40.40
2018-03-03T10:37:25.730Z,40.10
2018-03-03T10:39:53.913Z,40.30
2018-03-03T10:52:13.898Z,40.70
2018-03-03T10:54:43.171Z,40.20
2018-03-03T10:57:13.218Z,40.20
2018-03-03T10:59:43.114Z,40.30
2018-03-03T11:02:13.353Z,40.30
2018-03-03T11:04:45.284Z,40.20
2018-03-03T11:07:14.053Z,39.90
2018-03-03T11:09:42.032Z,40.00
2018-03-03T11:12:10.468Z,40.30
2018-03-03T11:14:40.087Z,39.70
2018-03-03T11:17:08.198Z,39.20
2018-03-03T11:19:39.302Z,39.50
2018-03-03T11:22:09.141Z,39.50
2018-03-03T11:24:41.005Z,39.30
2018-03-03T11:27:10.050Z,38.60
2018-03-03T11:29:40.199Z,39.00
2018-03-03T11:32:10.731Z,39.00
2018-03-03T11:34:38.794Z,39.20
2018-03-03T11:37:07.450Z,39.70
2018-03-03T11:39:35.941Z,39.50
2018-03-03T11:42:05.427Z,39.40
2018-03-03T11:44:35.331Z,38.10
2018-03-03T11:47:06.947Z,38.00
2018-03-03T11:49:35.290Z,38.60
2018-03-03T11:52:03.622Z,39.40
2018-03-03T11:54:34.430Z,39.30
2018-03-03T11:57:04.492Z,39.00
2018-03-03T11:59:34.021Z,38.80
2018-03-03T12:02:01.647Z,38.90
2018-03-03T12:04:32.230Z,39.20
2018-03-03T12:07:02.428Z,39.20
2018-03-03T12:09:31.030Z,39.90
2018-03-03T12:11:59.391Z,40.70
2018-03-03T12:14:29.059Z,40.70
2018-03-03T12:16:58.856Z,40.20
2018-03-03T12:19:26.485Z,39.70
2018-03-03T12:31:36.077Z,39.60
2018-03-03T12:34:04.946Z,39.00
2018-03-03T12:36:35.334Z,37.20
2018-03-03T12:39:05.742Z,38.40
2018-03-03T12:41:35.823Z,39.10
2018-03-03T12:44:04.811Z,39.10
2018-03-03T12:46:34.598Z,39.50
2018-03-03T12:49:04.317Z,39.10
2018-03-03T12:51:34.101Z,39.70
2018-03-03T12:54:03.349Z,39.70
2018-03-03T12:56:35.080Z,39.70
2018-03-03T12:59:04.286Z,40.00
2018-03-03T13:01:37.653Z,39.50
2018-03-03T13:04:07.784Z,40.00
2018-03-03T13:06:37.407Z,39.40
2018-03-03T13:09:07.180Z,39.10
2018-03-03T13:11:36.601Z,38.20
2018-03-03T13:14:06.332Z,39.30
2018-03-03T13:26:13.944Z,39.80
2018-03-03T13:28:43.301Z,40.60
2018-03-03T13:31:13.024Z,40.80
2018-03-03T13:33:42.980Z,41.00
2018-03-03T13:36:12.840Z,41.50
2018-03-03T13:38:42.935Z,41.50
2018-03-03T13:41:12.112Z,42.10
2018-03-03T13:43:40.780Z,42.30
2018-03-03T13:46:09.204Z,42.50
2018-03-03T13:48:37.899Z,41.60
2018-03-03T13:51:07.098Z,41.70
2018-03-03T13:53:35.984Z,41.60
2018-03-03T13:56:05.293Z,41.50
2018-03-03T13:58:34.622Z,40.90
2018-03-03T14:01:04.755Z,40.80
2018-03-03T14:03:34.634Z,40.80
2018-03-03T14:06:04.705Z,40.00
2018-03-03T14:08:33.764Z,40.50
2018-03-03T14:11:02.222Z,40.80
2018-03-03T14:13:33.032Z,40.00
2018-03-03T14:16:01.208Z,40.50
2018-03-03T14:18:29.206Z,40.50
2018-03-03T14:20:56.905Z,40.90
2018-03-03T14:23:27.645Z,39.70
2018-03-03T14:25:56.245Z,40.50
2018-03-03T14:28:25.259Z,39.40
2018-03-03T14:40:40.462Z,39.00
2018-03-03T14:43:08.988Z,39.20
2018-03-03T14:45:38.731Z,38.90
2018-03-03T14:48:06.319Z,38.80
2018-03-03T14:50:34.879Z,38.00
2018-03-03T14:53:04.690Z,37.70
2018-03-03T14:55:34.669Z,37.60
2018-03-03T14:58:03.373Z,37.50
2018-03-03T15:00:33.613Z,38.00
2018-03-03T15:03:03.397Z,37.20
2018-03-03T15:05:32.694Z,37.80
2018-03-03T15:08:02.068Z,37.80
2018-03-03T15:10:33.008Z,37.70
2018-03-03T15:13:02.509Z,36.50
2018-03-03T15:15:33.057Z,37.40
2018-03-03T15:18:01.005Z,37.40
2018-03-03T15:20:31.010Z,37.40
2018-03-03T15:23:01.391Z,37.40
2018-03-03T15:25:30.983Z,37.30
2018-03-03T15:28:01.159Z,37.90
2018-03-03T15:40:10.171Z,39.10
2018-03-03T15:52:18.818Z,39.10
2018-03-03T15:54:47.091Z,41.50
2018-03-03T15:57:17.082Z,41.10
2018-03-03T15:59:48.189Z,40.60
2018-03-03T16:02:17.691Z,40.40
2018-03-03T16:04:48.519Z,40.40
2018-03-03T16:07:20.379Z,39.30
2018-03-03T16:09:48.800Z,39.80
2018-03-03T16:12:18.531Z,40.10
2018-03-03T16:14:48.588Z,40.20
2018-03-03T16:17:16.743Z,40.40
2018-03-03T16:19:47.016Z,40.60
2018-03-03T16:22:17.636Z,40.40
2018-03-03T16:24:47.950Z,40.10
2018-03-03T16:27:19.093Z,40.20
2018-03-03T16:29:49.175Z,40.10
2018-03-03T16:32:18.292Z,39.80
2018-03-03T16:34:48.706Z,39.10
2018-03-03T16:37:18.002Z,39.10
2018-03-03T16:39:45.555Z,39.10
2018-03-03T16:44:58.503Z,37.90
2018-03-03T16:47:26.554Z,38.10
2018-03-03T16:49:55.871Z,38.30
2018-03-03T16:52:25.308Z,37.80
2018-03-03T16:54:53.693Z,37.60
2018-03-03T16:57:23.377Z,38.10
2018-03-03T16:59:54.027Z,38.40
2018-03-03T17:02:23.930Z,38.20
2018-03-03T17:04:56.272Z,38.70
2018-03-03T17:07:26.202Z,38.60
2018-03-03T17:09:55.026Z,38.50
2018-03-03T17:22:05.335Z,39.40
2018-03-03T17:24:35.232Z,39.40
2018-03-03T17:27:04.565Z,40.20
2018-03-03T17:29:33.818Z,40.00
2018-03-03T17:32:02.018Z,40.10
2018-03-03T17:34:29.989Z,40.50
2018-03-03T17:37:00.072Z,40.60
2018-03-03T17:39:30.743Z,40.70
2018-03-03T17:42:01.284Z,41.10
2018-03-03T17:44:32.184Z,41.10
2018-03-03T17:47:00.246Z,41.20
2018-03-03T17:49:29.943Z,41.60
2018-03-03T17:51:59.118Z,41.90
2018-03-03T17:54:28.399Z,41.80
2018-03-03T17:56:57.129Z,41.90
2018-03-03T17:59:25.938Z,41.50
2018-03-03T18:01:55.866Z,41.50
2018-03-03T18:04:24.329Z,40.70
2018-03-03T18:06:53.083Z,40.90
2018-03-03T18:09:22.015Z,41.20
2018-03-03T18:12:00.883Z,40.90
2018-03-03T18:14:32.974Z,40.60
2018-03-03T18:17:03.706Z,40.40
2018-03-03T18:19:37.330Z,40.40
2018-03-03T18:22:06.531Z,40.20
2018-03-03T18:24:36.049Z,39.90
2018-03-03T18:27:04.662Z,39.70
2018-03-03T18:29:34.071Z,39.60
2018-03-03T18:32:04.540Z,40.30
2018-03-03T18:34:33.226Z,40.70
2018-03-03T18:37:02.531Z,39.90
2018-03-03T18:39:33.196Z,40.00
2018-03-03T18:42:01.291Z,40.20
2018-03-03T18:44:30.425Z,39.60
2018-03-03T18:47:04.696Z,39.90
2018-03-03T18:49:36.788Z,39.90
2018-03-03T18:52:06.899Z,40.20
2018-03-03T18:54:36.540Z,40.20
2018-03-03T18:57:05.146Z,40.20
2018-03-03T18:59:34.032Z,39.90
2018-03-03T19:02:03.034Z,39.80
2018-03-03T19:04:31.502Z,39.70
2018-03-03T19:07:00.608Z,39.00
2018-03-03T19:09:28.715Z,39.50
2018-03-03T19:11:59.688Z,39.60
2018-03-03T19:14:33.032Z,40.00
2018-03-03T19:17:02.517Z,40.20
2018-03-03T19:19:32.688Z,39.80
2018-03-03T19:22:00.412Z,40.40
2018-03-03T19:24:32.135Z,39.40
2018-03-03T19:27:01.311Z,39.80
2018-03-03T19:39:10.189Z,39.50
2018-03-03T19:41:41.446Z,40.40
2018-03-03T19:44:10.584Z,40.50
2018-03-03T19:46:38.599Z,40.50
2018-03-03T19:49:08.801Z,40.50
2018-03-03T19:51:38.860Z,40.60
2018-03-03T19:54:07.593Z,41.10
2018-03-03T19:56:36.197Z,40.70
2018-03-03T19:59:05.448Z,40.50
2018-03-03T20:01:34.951Z,40.80
2018-03-03T20:04:04.170Z,40.80
2018-03-03T20:06:34.847Z,40.10
2018-03-03T20:09:04.312Z,40.80
2018-03-03T20:11:34.428Z,41.00
2018-03-03T20:14:03.401Z,41.20
2018-03-03T20:16:32.228Z,41.30
2018-03-03T20:19:00.554Z,41.30
2018-03-03T20:21:33.034Z,40.90
2018-03-03T20:24:03.062Z,41.00
2018-03-03T20:26:34.044Z,40.90
2018-03-03T20:29:04.443Z,40.80
2018-03-03T20:31:35.000Z,40.00
2018-03-03T20:34:02.757Z,40.10
2018-03-03T20:36:31.451Z,40.80
2018-03-03T20:39:01.064Z,40.60
2018-03-03T20:41:29.279Z,40.90
2018-03-03T20:43:58.311Z,41.60
2018-03-03T20:46:27.027Z,41.70
2018-03-03T20:48:56.575Z,41.40
2018-03-03T20:51:25.157Z,41.20
2018-03-03T20:53:53.984Z,41.20
2018-03-03T20:56:23.290Z,41.10
2018-03-03T20:58:52.584Z,41.10
2018-03-03T21:01:22.423Z,40.60
2018-03-03T21:03:51.885Z,40.80
2018-03-03T21:06:19.677Z,41.10
2018-03-03T21:08:48.813Z,41.40
2018-03-03T21:11:23.199Z,41.50
2018-03-03T21:13:53.305Z,41.50
2018-03-03T21:16:24.644Z,41.50
2018-03-03T21:18:54.373Z,42.00
2018-03-03T21:21:23.415Z,42.20
2018-03-03T21:23:54.503Z,42.10
2018-03-03T21:26:22.263Z,42.10
2018-03-03T21:28:51.365Z,41.20
2018-03-03T21:31:18.911Z,42.30
2018-03-03T21:33:49.877Z,41.40
2018-03-03T21:36:18.054Z,41.30
2018-03-03T21:38:47.345Z,41.20
2018-03-03T21:41:16.622Z,41.70
2018-03-03T21:43:45.713Z,41.80
2018-03-03T21:46:13.438Z,41.90
2018-03-03T21:48:42.238Z,42.00
2018-03-03T21:51:11.850Z,43.30
2018-03-03T21:53:40.380Z,42.60
2018-03-03T21:56:11.887Z,42.00
2018-03-03T21:58:40.404Z,42.00
2018-03-03T22:01:09.128Z,42.40
2018-03-03T22:03:38.598Z,42.80
2018-03-03T22:06:06.672Z,42.50
2018-03-03T22:08:35.486Z,42.40
2018-03-03T22:11:04.371Z,42.60
2018-03-03T22:13:34.740Z,42.70
2018-03-03T22:16:03.355Z,42.50
2018-03-03T22:18:32.780Z,42.30
2018-03-03T22:21:02.263Z,42.40
2018-03-03T22:23:31.262Z,42.00
2018-03-03T22:26:01.073Z,42.20
2018-03-03T22:28:30.055Z,42.10
2018-03-03T22:30:59.872Z,42.10
2018-03-03T22:33:28.803Z,42.20
2018-03-03T22:35:59.378Z,42.00
2018-03-03T22:38:29.603Z,42.20
2018-03-03T22:40:59.112Z,42.20
2018-03-03T22:43:27.731Z,42.30
2018-03-03T22:45:57.098Z,41.40
2018-03-03T22:48:28.185Z,41.70
2018-03-03T22:50:57.407Z,41.60
2018-03-03T22:53:27.596Z,41.70
2018-03-03T22:55:55.707Z,42.00
2018-03-03T22:58:24.232Z,42.30
2018-03-03T23:00:51.749Z,42.20
2018-03-03T23:03:20.968Z,42.00
2018-03-03T23:05:49.998Z,42.10
2018-03-03T23:08:20.035Z,42.20
2018-03-03T23:10:50.896Z,41.80
2018-03-03T23:13:22.192Z,41.80
2018-03-03T23:15:50.888Z,41.80
2018-03-03T23:18:19.456Z,42.20
2018-03-03T23:20:48.049Z,42.00
2018-03-03T23:23:17.776Z,41.80
2018-03-03T23:25:46.859Z,42.00
2018-03-03T23:28:17.848Z,41.90
2018-03-03T23:30:46.783Z,41.80
2018-03-03T23:33:16.183Z,41.30
2018-03-03T23:35:45.509Z,41.50
2018-03-03T23:38:15.810Z,41.90
2018-03-03T23:40:44.433Z,42.10
2018-03-03T23:43:14.683Z,42.20
2018-03-03T23:45:44.721Z,41.80
2018-03-03T23:48:13.671Z,41.80
2018-03-03T23:50:41.901Z,41.90
2018-03-03T23:53:10.593Z,41.50
2018-03-03T23:55:39.968Z,41.50
2018-03-03T23:58:10.299Z,41.20
